Time;durP1;ratioP1;P1;durP2;ratioP2;P2;SDS_P1;SDS_P2;PMS_P1;PMS_P2;Temp;Humidity;BMP_temperature;BMP_pressure;BME280_temperature;BME280_humidity;BME280_pressure;Samples;Min_cycle;Max_cycle;Signal;HPM_P1;HPM_P2
2023/04/19 18:32:34;;;;;;;32.95;4.68;;;26.80;64.50;;;;;;5085631;27;20399;-59
2023/04/19 18:35:04;;;;;;;24.08;4.75;;;27.90;59.50;;;;;;5086172;28;20081;-60
2023/04/19 18:37:30;;;;;;;33.38;5.22;;;27.00;59.00;;;;;;5086900;28;20084;-61
2023/04/19 18:39:57;;;;;;;22.85;4.50;;;26.50;66.40;;;;;;5082846;28;20028;-60
2023/04/19 18:42:23;;;;;;;26.80;4.68;;;27.10;61.70;;;;;;5086212;28;20024;-64
2023/04/19 18:44:49;;;;;;;28.13;4.30;;;27.00;29.70;;;;;;5091652;28;20017;-63
2023/04/19 18:47:16;;;;;;;20.73;4.47;;;26.70;30.80;;;;;;5097544;28;20477;-61
2023/04/19 18:49:42;;;;;;;22.17;4.43;;;26.60;31.30;;;;;;5088269;28;20025;-61
2023/04/19 18:52:09;;;;;;;35.47;5.30;;;26.60;29.30;;;;;;5090045;28;20118;-63
2023/04/19 18:54:36;;;;;;;23.42;4.53;;;27.00;29.50;;;;;;5087969;28;20024;-61
2023/04/19 18:57:02;;;;;;;28.17;4.38;;;27.20;29.00;;;;;;5091700;28;20055;-61
2023/04/19 18:59:29;;;;;;;28.67;7.82;;;27.10;29.00;;;;;;5093486;28;20039;-62
2023/04/19 19:01:56;;;;;;;24.25;5.97;;;26.90;28.20;;;;;;5092363;28;20400;-62
2023/04/19 19:04:23;;;;;;;25.58;4.95;;;27.00;28.40;;;;;;5092809;28;20111;-61
2023/04/19 19:06:50;;;;;;;24.52;4.47;;;27.10;28.80;;;;;;5090291;28;20031;-62
2023/04/19 19:09:16;;;;;;;23.00;5.35;;;27.20;29.10;;;;;;5092382;28;20035;-60
2023/04/19 19:11:43;;;;;;;22.70;4.60;;;27.70;29.10;;;;;;5087408;28;20552;-63
2023/04/19 19:14:09;;;;;;;23.42;3.95;;;27.70;28.20;;;;;;5090066;28;20024;-62
2023/04/19 19:16:37;;;;;;;18.75;4.30;;;27.70;28.00;;;;;;5094749;28;20013;-62
2023/04/19 19:19:06;;;;;;;26.50;4.50;;;27.50;28.30;;;;;;5093002;28;20019;-60
2023/04/19 19:21:33;;;;;;;26.60;4.22;;;27.60;28.50;;;;;;5088757;28;20036;-63
2023/04/19 19:23:59;;;;;;;20.10;3.70;;;28.00;28.20;;;;;;5091567;28;20039;-62
2023/04/19 19:26:25;;;;;;;27.33;4.82;;;27.90;27.30;;;;;;5087977;28;20643;-64
2023/04/19 19:28:52;;;;;;;28.65;5.38;;;27.80;26.30;;;;;;5084568;28;20085;-63
2023/04/19 19:31:18;;;;;;;27.75;4.72;;;27.80;26.80;;;;;;5089106;28;20171;-64
2023/04/19 19:33:45;;;;;;;28.27;4.20;;;28.10;26.70;;;;;;5084654;28;20032;-60
2023/04/19 19:36:12;;;;;;;29.80;4.50;;;28.10;26.70;;;;;;5088279;28;20021;-64
2023/04/19 19:38:39;;;;;;;26.67;4.47;;;28.30;26.50;;;;;;5092298;28;20025;-63
2023/04/19 19:41:06;;;;;;;18.05;4.10;;;28.50;26.40;;;;;;5090472;28;20083;-64
2023/04/19 19:43:32;;;;;;;35.33;5.43;;;28.40;27.30;;;;;;5088344;28;20034;-63
2023/04/19 19:46:02;;;;;;;22.88;4.30;;;28.20;27.00;;;;;;5073628;28;20043;-62
2023/04/19 19:48:28;;;;;;;27.92;5.45;;;28.30;26.30;;;;;;5079218;28;20120;-63
2023/04/19 19:50:56;;;;;;;34.08;4.40;;;28.40;26.70;;;;;;5071367;28;20040;-61
2023/04/19 19:53:24;;;;;;;27.67;4.88;;;28.40;27.20;;;;;;5076510;28;20027;-63
2023/04/19 19:55:51;;;;;;;28.42;4.78;;;28.40;28.50;;;;;;5076563;28;20032;-61
2023/04/19 19:58:17;;;;;;;22.40;5.07;;;28.40;27.70;;;;;;5078434;28;20027;-63
2023/04/19 20:00:44;;;;;;;24.40;4.00;;;28.40;27.00;;;;;;5079431;28;20020;-61
2023/04/19 20:03:11;;;;;;;29.33;6.00;;;28.40;26.70;;;;;;5075226;28;20028;-60
2023/04/19 20:05:37;;;;;;;23.48;4.68;;;28.60;26.90;;;;;;5078585;28;20106;-61
2023/04/19 20:08:10;;;;;;;25.50;5.70;;;28.80;25.60;;;;;;5076528;28;20078;-62
2023/04/19 20:10:38;;;;;;;24.55;4.07;;;28.90;25.70;;;;;;5070722;28;20103;-63
2023/04/19 20:13:07;;;;;;;18.33;4.15;;;28.60;25.90;;;;;;5072555;28;21677;-62
2023/04/19 20:15:35;;;;;;;29.38;4.38;;;28.60;24.80;;;;;;5081077;28;21417;-62
2023/04/19 20:18:03;;;;;;;22.27;3.83;;;28.60;25.90;;;;;;5071594;28;20511;-63
2023/04/19 20:20:29;;;;;;;21.85;4.20;;;28.70;26.20;;;;;;5076927;28;20032;-62
2023/04/19 20:22:55;;;;;;;26.27;4.40;;;28.90;26.10;;;;;;5077417;28;20074;-62
2023/04/19 20:25:22;;;;;;;24.65;4.88;;;28.80;26.10;;;;;;5080844;28;20049;-61
2023/04/19 20:27:49;;;;;;;22.20;4.22;;;28.50;25.80;;;;;;5076086;28;20057;-59
2023/04/19 20:30:15;;;;;;;21.33;4.32;;;28.40;25.60;;;;;;5075552;28;20039;-62
2023/04/19 20:32:41;;;;;;;25.60;5.00;;;28.50;25.60;;;;;;5079992;28;20040;-63
2023/04/19 20:35:10;;;;;;;28.25;4.47;;;28.60;25.70;;;;;;5072421;28;20053;-62
2023/04/19 20:37:41;;;;;;;23.10;4.97;;;28.70;26.00;;;;;;5075084;28;20032;-60
2023/04/19 20:40:10;;;;;;;25.55;3.78;;;28.80;25.20;;;;;;5075293;28;20052;-61
2023/04/19 20:42:37;;;;;;;22.67;4.70;;;28.90;25.10;;;;;;5070522;28;20024;-63
2023/04/19 20:45:05;;;;;;;19.02;4.20;;;28.60;25.40;;;;;;5081343;28;20054;-62
2023/04/19 20:47:32;;;;;;;15.13;3.95;;;28.70;25.30;;;;;;5071409;28;20491;-62
2023/04/19 20:49:59;;;;;;;13.13;4.25;;;28.80;24.90;;;;;;5073351;28;20049;-62
2023/04/19 20:52:25;;;;;;;23.23;4.30;;;28.90;25.00;;;;;;5072950;28;20059;-61
2023/04/19 20:54:53;;;;;;;20.23;3.83;;;29.00;24.70;;;;;;5072154;28;20031;-62
2023/04/19 20:57:19;;;;;;;17.20;3.72;;;29.10;24.50;;;;;;5070550;28;20101;-63
2023/04/19 20:59:47;;;;;;;15.05;3.15;;;29.00;24.50;;;;;;5075150;28;20513;-63
2023/04/19 21:02:14;;;;;;;12.15;3.25;;;29.20;24.70;;;;;;5072416;28;20123;-63
2023/04/19 21:04:44;;;;;;;22.02;3.75;;;29.30;24.80;;;;;;5075160;28;20557;-63
2023/04/19 21:07:10;;;;;;;19.95;4.55;;;29.40;24.80;;;;;;5071243;28;20066;-61
2023/04/19 21:09:36;;;;;;;18.70;3.95;;;29.50;24.70;;;;;;5072785;28;20032;-60
2023/04/19 21:12:03;;;;;;;20.08;4.15;;;29.40;24.70;;;;;;5073987;28;20118;-63
2023/04/19 21:14:32;;;;;;;31.20;4.30;;;29.70;24.90;;;;;;5069626;28;20509;-61
2023/04/19 21:17:02;;;;;;;18.02;3.70;;;29.80;24.60;;;;;;5076686;28;20142;-61
2023/04/19 21:19:29;;;;;;;19.75;4.30;;;29.70;23.70;;;;;;5069664;28;20059;-61
2023/04/19 21:21:57;;;;;;;24.33;3.83;;;29.40;23.70;;;;;;5072019;28;20100;-61
2023/04/19 21:24:24;;;;;;;21.10;5.40;;;29.40;23.70;;;;;;5071444;28;20113;-61
2023/04/19 21:26:50;;;;;;;14.93;3.58;;;29.30;23.80;;;;;;5071117;28;20076;-63
2023/04/19 21:29:16;;;;;;;17.75;5.40;;;29.50;23.50;;;;;;5072533;28;20076;-62
2023/04/19 21:31:43;;;;;;;17.05;4.18;;;29.40;23.60;;;;;;5073157;28;20101;-62
2023/04/19 21:34:10;;;;;;;20.58;3.58;;;29.70;23.60;;;;;;5078005;28;20138;-61
2023/04/19 21:36:36;;;;;;;20.20;4.15;;;29.60;23.10;;;;;;5076550;28;20065;-62
2023/04/19 21:39:03;;;;;;;26.92;4.15;;;30.00;23.70;;;;;;5071566;28;20074;-61
2023/04/19 21:41:29;;;;;;;17.98;3.97;;;29.90;23.70;;;;;;5074400;28;20044;-62
2023/04/19 21:43:55;;;;;;;17.20;3.90;;;30.00;23.10;;;;;;5069767;28;20381;-61
2023/04/19 21:46:22;;;;;;;17.13;3.70;;;30.10;22.80;;;;;;5068702;28;20085;-62
2023/04/19 21:48:48;;;;;;;21.90;3.95;;;30.20;22.80;;;;;;5071953;28;20476;-61
2023/04/19 21:51:15;;;;;;;20.98;4.65;;;30.40;22.70;;;;;;5071128;28;20069;-61
2023/04/19 21:53:42;;;;;;;22.77;4.57;;;30.30;22.50;;;;;;5068500;28;20422;-61
2023/04/19 21:56:08;;;;;;;13.05;3.63;;;30.20;22.40;;;;;;5072021;28;20419;-62
2023/04/19 21:58:35;;;;;;;23.38;3.78;;;30.10;22.10;;;;;;5070314;28;20049;-61
2023/04/19 22:01:01;;;;;;;13.73;3.22;;;30.00;22.00;;;;;;5074916;28;20416;-61
2023/04/19 22:03:28;;;;;;;16.50;4.00;;;30.20;21.80;;;;;;5071288;28;20050;-62
2023/04/19 22:05:54;;;;;;;13.32;3.50;;;30.20;22.20;;;;;;5073541;28;20510;-61
2023/04/19 22:08:22;;;;;;;17.77;3.95;;;30.20;22.80;;;;;;5070903;28;20098;-62
2023/04/19 22:10:49;;;;;;;18.33;3.38;;;30.30;22.10;;;;;;5069788;28;20079;-62
2023/04/19 22:13:16;;;;;;;20.30;3.75;;;30.10;22.10;;;;;;5073157;28;20052;-61
2023/04/19 22:15:42;;;;;;;30.13;3.90;;;30.10;22.20;;;;;;5071272;28;20072;-62
2023/04/19 22:18:09;;;;;;;21.30;2.97;;;30.00;21.50;;;;;;5068810;28;20415;-61
2023/04/19 22:20:35;;;;;;;17.52;3.35;;;29.50;22.00;;;;;;5075213;28;20136;-61
2023/04/19 22:23:02;;;;;;;16.13;3.13;;;29.70;22.00;;;;;;5065831;28;20554;-61
2023/04/19 22:25:28;;;;;;;17.60;3.63;;;29.70;21.80;;;;;;5069109;28;20075;-59
2023/04/19 22:27:55;;;;;;;19.88;4.35;;;29.50;21.60;;;;;;5067938;28;20079;-58
2023/04/19 22:30:21;;;;;;;18.33;4.07;;;29.50;21.50;;;;;;5067243;28;20122;-58
2023/04/19 22:32:47;;;;;;;30.88;5.10;;;29.20;21.70;;;;;;5067508;28;20055;-59
2023/04/19 22:35:14;;;;;;;26.25;4.40;;;29.10;22.20;;;;;;5072596;28;20087;-58
2023/04/19 22:37:41;;;;;;;16.83;3.20;;;29.00;22.40;;;;;;5074186;28;20272;-59
2023/04/19 22:40:08;;;;;;;23.00;3.72;;;28.90;22.30;;;;;;5071500;28;20066;-62
2023/04/19 22:42:35;;;;;;;20.15;3.60;;;29.00;22.70;;;;;;5076436;28;20070;-62
2023/04/19 22:45:02;;;;;;;15.25;3.35;;;28.90;22.70;;;;;;5075940;28;20052;-61
2023/04/19 22:47:29;;;;;;;14.95;3.35;;;28.70;22.80;;;;;;5072842;28;20049;-60
2023/04/19 22:49:56;;;;;;;22.58;3.60;;;28.80;22.70;;;;;;5073228;28;20087;-61
2023/04/19 22:52:22;;;;;;;11.93;3.58;;;28.80;22.50;;;;;;5068302;28;21787;-61
2023/04/19 22:54:49;;;;;;;16.02;3.20;;;28.30;22.60;;;;;;5068425;28;20049;-61
2023/04/19 22:57:15;;;;;;;25.00;4.75;;;28.40;23.30;;;;;;5074758;28;20118;-54
2023/04/19 22:59:42;;;;;;;15.70;3.53;;;28.40;23.30;;;;;;5067442;28;20064;-60
2023/04/19 23:02:08;;;;;;;19.50;3.67;;;28.20;23.10;;;;;;5073952;28;20065;-59
2023/04/19 23:04:35;;;;;;;17.27;3.60;;;28.30;23.40;;;;;;5069585;28;20151;-59
2023/04/19 23:07:01;;;;;;;17.20;3.40;;;28.30;23.20;;;;;;5070564;28;20396;-60
2023/04/19 23:09:28;;;;;;;18.08;3.35;;;28.40;23.20;;;;;;5072185;28;20047;-60
2023/04/19 23:11:59;;;;;;;15.02;3.90;;;28.50;23.50;;;;;;5078579;28;20055;-63
2023/04/19 23:14:27;;;;;;;16.83;3.97;;;28.60;23.30;;;;;;5070073;28;20093;-62
2023/04/19 23:16:53;;;;;;;16.08;3.20;;;28.40;23.50;;;;;;5074586;28;20408;-60
2023/04/19 23:19:21;;;;;;;25.30;4.25;;;28.40;23.80;;;;;;5079316;28;20060;-62
2023/04/19 23:21:49;;;;;;;21.90;3.90;;;28.40;23.60;;;;;;5078245;28;20053;-61
2023/04/19 23:24:16;;;;;;;16.23;3.63;;;28.60;23.40;;;;;;5073357;28;20055;-62
2023/04/19 23:26:42;;;;;;;18.63;3.40;;;28.60;23.10;;;;;;5077069;28;20575;-60
2023/04/19 23:29:08;;;;;;;10.63;3.30;;;28.50;23.10;;;;;;5073297;28;20066;-62
2023/04/19 23:31:35;;;;;;;10.65;3.25;;;28.70;23.10;;;;;;5074236;28;20127;-61
2023/04/19 23:34:01;;;;;;;14.48;3.60;;;28.90;23.00;;;;;;5078586;28;20064;-62
2023/04/19 23:36:27;;;;;;;18.63;3.80;;;28.90;22.90;;;;;;5083227;28;20067;-61
2023/04/19 23:38:54;;;;;;;17.25;3.45;;;28.90;22.70;;;;;;5075158;28;20136;-62
2023/04/19 23:41:20;;;;;;;14.77;3.70;;;28.80;22.70;;;;;;5073772;28;20057;-62
2023/04/19 23:43:47;;;;;;;16.27;3.13;;;28.70;22.10;;;;;;5074796;28;20058;-63
2023/04/19 23:46:13;;;;;;;18.10;3.08;;;28.50;22.30;;;;;;5071646;28;20052;-63
2023/04/19 23:48:40;;;;;;;15.85;3.63;;;28.30;22.50;;;;;;5074853;28;20048;-62
2023/04/19 23:51:06;;;;;;;13.45;3.35;;;28.10;22.80;;;;;;5076105;28;20528;-61
2023/04/19 23:53:32;;;;;;;17.70;3.47;;;28.20;23.00;;;;;;5073562;28;20047;-63
2023/04/19 23:55:59;;;;;;;9.75;2.97;;;28.00;22.60;;;;;;5077127;28;20043;-62
2023/04/19 23:58:25;;;;;;;18.98;3.33;;;27.90;22.60;;;;;;5069984;28;20428;-65
